sensor_id;sensor_type;location;lat;lon;timestamp;P1;durP1;ratioP1;P2;durP2;ratioP2
50495;SDS011;38806;51.554;5.704;2023-07-30T00:00:23;6.85;;;3.50;;
50495;SDS011;38806;51.554;5.704;2023-07-30T00:02:23;9.02;;;3.97;;
50495;SDS011;38806;51.554;5.704;2023-07-30T00:04:24;9.20;;;3.25;;
50495;SDS011;38806;51.554;5.704;2023-07-30T00:06:24;9.60;;;3.13;;
50495;SDS011;38806;51.554;5.704;2023-07-30T00:08:24;9.35;;;3.85;;
50495;SDS011;38806;51.554;5.704;2023-07-30T00:10:24;14.38;;;5.65;;
50495;SDS011;38806;51.554;5.704;2023-07-30T00:12:25;10.00;;;4.13;;
50495;SDS011;38806;51.554;5.704;2023-07-30T00:14:25;9.43;;;4.15;;
50495;SDS011;38806;51.554;5.704;2023-07-30T00:16:28;11.48;;;4.72;;
50495;SDS011;38806;51.554;5.704;2023-07-30T00:18:28;11.15;;;3.75;;
50495;SDS011;38806;51.554;5.704;2023-07-30T00:20:28;11.60;;;4.80;;
50495;SDS011;38806;51.554;5.704;2023-07-30T00:22:29;8.30;;;4.22;;
50495;SDS011;38806;51.554;5.704;2023-07-30T00:24:29;7.13;;;3.63;;
50495;SDS011;38806;51.554;5.704;2023-07-30T00:26:29;10.93;;;4.93;;
50495;SDS011;38806;51.554;5.704;2023-07-30T00:28:30;14.13;;;5.20;;
50495;SDS011;38806;51.554;5.704;2023-07-30T00:30:30;12.48;;;4.13;;
50495;SDS011;38806;51.554;5.704;2023-07-30T00:32:30;8.85;;;3.70;;
50495;SDS011;38806;51.554;5.704;2023-07-30T00:34:30;11.02;;;3.63;;
50495;SDS011;38806;51.554;5.704;2023-07-30T00:36:30;12.80;;;4.28;;
50495;SDS011;38806;51.554;5.704;2023-07-30T00:38:31;12.43;;;3.78;;
50495;SDS011;38806;51.554;5.704;2023-07-30T00:40:31;13.40;;;4.22;;
50495;SDS011;38806;51.554;5.704;2023-07-30T00:42:31;7.28;;;3.10;;
50495;SDS011;38806;51.554;5.704;2023-07-30T00:44:31;16.85;;;4.90;;
50495;SDS011;38806;51.554;5.704;2023-07-30T00:46:31;12.82;;;3.38;;
50495;SDS011;38806;51.554;5.704;2023-07-30T00:48:32;10.75;;;3.80;;
50495;SDS011;38806;51.554;5.704;2023-07-30T00:50:32;13.25;;;4.85;;
50495;SDS011;38806;51.554;5.704;2023-07-30T00:52:33;11.95;;;4.80;;
50495;SDS011;38806;51.554;5.704;2023-07-30T00:54:33;19.33;;;5.85;;
50495;SDS011;38806;51.554;5.704;2023-07-30T00:56:34;10.77;;;4.72;;
50495;SDS011;38806;51.554;5.704;2023-07-30T00:58:34;8.27;;;4.57;;
50495;SDS011;38806;51.554;5.704;2023-07-30T01:00:35;8.23;;;4.22;;
50495;SDS011;38806;51.554;5.704;2023-07-30T01:02:35;8.57;;;4.10;;
50495;SDS011;38806;51.554;5.704;2023-07-30T01:04:36;10.02;;;3.70;;
50495;SDS011;38806;51.554;5.704;2023-07-30T01:06:37;10.13;;;4.10;;
50495;SDS011;38806;51.554;5.704;2023-07-30T01:08:37;10.07;;;3.58;;
50495;SDS011;38806;51.554;5.704;2023-07-30T01:10:38;8.85;;;4.13;;
50495;SDS011;38806;51.554;5.704;2023-07-30T01:12:40;9.57;;;3.90;;
50495;SDS011;38806;51.554;5.704;2023-07-30T01:14:41;11.50;;;4.03;;
50495;SDS011;38806;51.554;5.704;2023-07-30T01:16:41;10.52;;;4.13;;
50495;SDS011;38806;51.554;5.704;2023-07-30T01:18:42;10.98;;;3.90;;
50495;SDS011;38806;51.554;5.704;2023-07-30T01:20:42;11.23;;;4.18;;
50495;SDS011;38806;51.554;5.704;2023-07-30T01:22:42;12.30;;;4.82;;
50495;SDS011;38806;51.554;5.704;2023-07-30T01:24:42;13.27;;;3.87;;
50495;SDS011;38806;51.554;5.704;2023-07-30T01:26:43;9.88;;;3.97;;
50495;SDS011;38806;51.554;5.704;2023-07-30T01:28:46;13.48;;;4.28;;
50495;SDS011;38806;51.554;5.704;2023-07-30T01:30:47;9.30;;;3.38;;
50495;SDS011;38806;51.554;5.704;2023-07-30T01:32:49;10.50;;;4.40;;
50495;SDS011;38806;51.554;5.704;2023-07-30T01:34:50;10.52;;;4.13;;
50495;SDS011;38806;51.554;5.704;2023-07-30T01:36:51;16.13;;;5.78;;
50495;SDS011;38806;51.554;5.704;2023-07-30T01:38:52;13.93;;;3.83;;
50495;SDS011;38806;51.554;5.704;2023-07-30T01:40:52;12.13;;;5.30;;
50495;SDS011;38806;51.554;5.704;2023-07-30T01:42:52;12.25;;;4.28;;
50495;SDS011;38806;51.554;5.704;2023-07-30T01:44:53;10.13;;;4.03;;
50495;SDS011;38806;51.554;5.704;2023-07-30T01:46:53;14.13;;;4.93;;
50495;SDS011;38806;51.554;5.704;2023-07-30T01:48:53;14.35;;;4.45;;
50495;SDS011;38806;51.554;5.704;2023-07-30T01:50:54;12.45;;;4.75;;
50495;SDS011;38806;51.554;5.704;2023-07-30T01:52:54;10.32;;;4.10;;
50495;SDS011;38806;51.554;5.704;2023-07-30T01:54:54;11.82;;;4.88;;
50495;SDS011;38806;51.554;5.704;2023-07-30T01:56:56;10.68;;;5.50;;
50495;SDS011;38806;51.554;5.704;2023-07-30T01:58:56;10.60;;;5.22;;
50495;SDS011;38806;51.554;5.704;2023-07-30T02:00:56;7.65;;;3.50;;
50495;SDS011;38806;51.554;5.704;2023-07-30T02:02:56;7.88;;;3.78;;
50495;SDS011;38806;51.554;5.704;2023-07-30T02:04:57;10.40;;;4.95;;
50495;SDS011;38806;51.554;5.704;2023-07-30T02:06:57;27.40;;;6.15;;
50495;SDS011;38806;51.554;5.704;2023-07-30T02:08:57;14.43;;;3.90;;
50495;SDS011;38806;51.554;5.704;2023-07-30T02:10:57;10.30;;;4.45;;
50495;SDS011;38806;51.554;5.704;2023-07-30T02:12:58;11.55;;;4.82;;
50495;SDS011;38806;51.554;5.704;2023-07-30T02:14:58;14.48;;;5.20;;
50495;SDS011;38806;51.554;5.704;2023-07-30T02:16:58;8.45;;;3.55;;
50495;SDS011;38806;51.554;5.704;2023-07-30T02:18:58;9.95;;;4.63;;
50495;SDS011;38806;51.554;5.704;2023-07-30T02:20:59;13.15;;;5.43;;
50495;SDS011;38806;51.554;5.704;2023-07-30T02:22:59;14.52;;;4.50;;
50495;SDS011;38806;51.554;5.704;2023-07-30T02:24:59;16.85;;;5.07;;
50495;SDS011;38806;51.554;5.704;2023-07-30T02:26:59;10.48;;;4.80;;
50495;SDS011;38806;51.554;5.704;2023-07-30T02:29:00;15.52;;;4.03;;
50495;SDS011;38806;51.554;5.704;2023-07-30T02:31:00;16.67;;;5.03;;
50495;SDS011;38806;51.554;5.704;2023-07-30T02:33:01;18.73;;;6.38;;
50495;SDS011;38806;51.554;5.704;2023-07-30T02:35:01;18.52;;;5.47;;
50495;SDS011;38806;51.554;5.704;2023-07-30T02:37:01;18.23;;;5.75;;
50495;SDS011;38806;51.554;5.704;2023-07-30T02:39:01;11.43;;;5.60;;
50495;SDS011;38806;51.554;5.704;2023-07-30T02:41:02;11.35;;;5.55;;
50495;SDS011;38806;51.554;5.704;2023-07-30T02:43:02;14.07;;;5.13;;
50495;SDS011;38806;51.554;5.704;2023-07-30T02:45:02;17.33;;;4.73;;
50495;SDS011;38806;51.554;5.704;2023-07-30T02:47:03;12.00;;;4.60;;
50495;SDS011;38806;51.554;5.704;2023-07-30T02:49:03;12.52;;;5.13;;
50495;SDS011;38806;51.554;5.704;2023-07-30T02:51:03;15.03;;;6.03;;
50495;SDS011;38806;51.554;5.704;2023-07-30T02:53:03;13.48;;;5.25;;
50495;SDS011;38806;51.554;5.704;2023-07-30T02:55:04;21.45;;;8.43;;
50495;SDS011;38806;51.554;5.704;2023-07-30T02:57:04;15.27;;;5.32;;
50495;SDS011;38806;51.554;5.704;2023-07-30T02:59:04;15.50;;;6.00;;
50495;SDS011;38806;51.554;5.704;2023-07-30T03:01:06;11.73;;;5.97;;
50495;SDS011;38806;51.554;5.704;2023-07-30T03:03:07;18.42;;;6.72;;
50495;SDS011;38806;51.554;5.704;2023-07-30T03:05:07;17.92;;;5.82;;
50495;SDS011;38806;51.554;5.704;2023-07-30T03:07:07;18.52;;;7.80;;
50495;SDS011;38806;51.554;5.704;2023-07-30T03:09:07;17.63;;;5.53;;
50495;SDS011;38806;51.554;5.704;2023-07-30T03:11:08;16.58;;;6.32;;
50495;SDS011;38806;51.554;5.704;2023-07-30T03:13:08;16.02;;;6.85;;
50495;SDS011;38806;51.554;5.704;2023-07-30T03:15:08;15.27;;;6.27;;
50495;SDS011;38806;51.554;5.704;2023-07-30T03:17:09;23.90;;;8.57;;
50495;SDS011;38806;51.554;5.704;2023-07-30T03:19:09;15.48;;;7.97;;
50495;SDS011;38806;51.554;5.704;2023-07-30T03:21:09;21.63;;;9.10;;
50495;SDS011;38806;51.554;5.704;2023-07-30T03:23:09;17.60;;;6.22;;
50495;SDS011;38806;51.554;5.704;2023-07-30T03:25:09;18.27;;;7.40;;
50495;SDS011;38806;51.554;5.704;2023-07-30T03:27:10;19.02;;;8.82;;
50495;SDS011;38806;51.554;5.704;2023-07-30T03:29:10;16.23;;;6.72;;
50495;SDS011;38806;51.554;5.704;2023-07-30T03:31:10;16.43;;;7.33;;
50495;SDS011;38806;51.554;5.704;2023-07-30T03:33:10;18.33;;;8.68;;
50495;SDS011;38806;51.554;5.704;2023-07-30T03:35:10;22.52;;;9.43;;
50495;SDS011;38806;51.554;5.704;2023-07-30T03:37:10;20.40;;;7.97;;
50495;SDS011;38806;51.554;5.704;2023-07-30T03:39:11;16.55;;;8.43;;
50495;SDS011;38806;51.554;5.704;2023-07-30T03:41:11;29.75;;;9.48;;
50495;SDS011;38806;51.554;5.704;2023-07-30T03:43:11;25.48;;;9.77;;
50495;SDS011;38806;51.554;5.704;2023-07-30T03:45:11;21.67;;;9.53;;
50495;SDS011;38806;51.554;5.704;2023-07-30T03:47:11;17.95;;;8.55;;
50495;SDS011;38806;51.554;5.704;2023-07-30T03:49:12;17.17;;;9.88;;
50495;SDS011;38806;51.554;5.704;2023-07-30T03:51:12;28.80;;;10.35;;
50495;SDS011;38806;51.554;5.704;2023-07-30T03:53:12;24.00;;;9.00;;
50495;SDS011;38806;51.554;5.704;2023-07-30T03:55:12;17.98;;;6.93;;
50495;SDS011;38806;51.554;5.704;2023-07-30T03:57:13;23.48;;;7.38;;
50495;SDS011;38806;51.554;5.704;2023-07-30T03:59:13;21.85;;;7.40;;
50495;SDS011;38806;51.554;5.704;2023-07-30T04:01:13;18.60;;;9.17;;
50495;SDS011;38806;51.554;5.704;2023-07-30T04:03:13;28.23;;;7.88;;
50495;SDS011;38806;51.554;5.704;2023-07-30T04:05:13;14.25;;;6.32;;
50495;SDS011;38806;51.554;5.704;2023-07-30T04:07:14;16.92;;;8.30;;
50495;SDS011;38806;51.554;5.704;2023-07-30T04:09:14;19.13;;;6.80;;
50495;SDS011;38806;51.554;5.704;2023-07-30T04:11:14;19.50;;;6.63;;
50495;SDS011;38806;51.554;5.704;2023-07-30T04:13:14;13.60;;;6.43;;
50495;SDS011;38806;51.554;5.704;2023-07-30T04:15:15;18.42;;;7.40;;
50495;SDS011;38806;51.554;5.704;2023-07-30T04:17:15;18.20;;;6.70;;
50495;SDS011;38806;51.554;5.704;2023-07-30T04:19:16;17.10;;;6.85;;
50495;SDS011;38806;51.554;5.704;2023-07-30T04:21:16;14.30;;;6.60;;
50495;SDS011;38806;51.554;5.704;2023-07-30T04:23:16;15.02;;;8.70;;
50495;SDS011;38806;51.554;5.704;2023-07-30T04:25:16;23.27;;;7.47;;
50495;SDS011;38806;51.554;5.704;2023-07-30T04:27:16;17.30;;;6.57;;
50495;SDS011;38806;51.554;5.704;2023-07-30T04:29:16;17.48;;;6.68;;
50495;SDS011;38806;51.554;5.704;2023-07-30T04:31:17;24.05;;;7.45;;
50495;SDS011;38806;51.554;5.704;2023-07-30T04:33:17;19.90;;;6.03;;
50495;SDS011;38806;51.554;5.704;2023-07-30T04:35:17;17.70;;;7.32;;
50495;SDS011;38806;51.554;5.704;2023-07-30T04:37:17;13.98;;;6.18;;
50495;SDS011;38806;51.554;5.704;2023-07-30T04:39:18;20.63;;;7.53;;
50495;SDS011;38806;51.554;5.704;2023-07-30T04:41:18;18.73;;;5.95;;
50495;SDS011;38806;51.554;5.704;2023-07-30T04:43:18;18.88;;;6.97;;
50495;SDS011;38806;51.554;5.704;2023-07-30T04:45:18;19.35;;;6.80;;
50495;SDS011;38806;51.554;5.704;2023-07-30T04:47:19;15.77;;;6.65;;
50495;SDS011;38806;51.554;5.704;2023-07-30T04:49:19;19.50;;;5.90;;
50495;SDS011;38806;51.554;5.704;2023-07-30T04:51:20;14.10;;;6.28;;
50495;SDS011;38806;51.554;5.704;2023-07-30T04:53:20;17.13;;;6.60;;
50495;SDS011;38806;51.554;5.704;2023-07-30T04:55:21;27.73;;;9.23;;
50495;SDS011;38806;51.554;5.704;2023-07-30T04:57:22;18.50;;;6.70;;
50495;SDS011;38806;51.554;5.704;2023-07-30T04:59:22;11.93;;;6.35;;
50495;SDS011;38806;51.554;5.704;2023-07-30T05:01:23;18.95;;;6.65;;
50495;SDS011;38806;51.554;5.704;2023-07-30T05:03:24;15.23;;;7.55;;
50495;SDS011;38806;51.554;5.704;2023-07-30T05:05:24;23.20;;;8.63;;
50495;SDS011;38806;51.554;5.704;2023-07-30T05:07:24;20.60;;;8.50;;
50495;SDS011;38806;51.554;5.704;2023-07-30T05:09:24;27.15;;;8.93;;
50495;SDS011;38806;51.554;5.704;2023-07-30T05:11:25;24.80;;;8.65;;
50495;SDS011;38806;51.554;5.704;2023-07-30T05:13:25;17.20;;;9.23;;
50495;SDS011;38806;51.554;5.704;2023-07-30T05:15:25;19.03;;;7.93;;
50495;SDS011;38806;51.554;5.704;2023-07-30T05:17:25;19.27;;;9.68;;
50495;SDS011;38806;51.554;5.704;2023-07-30T05:19:26;16.70;;;7.82;;
50495;SDS011;38806;51.554;5.704;2023-07-30T05:21:26;20.85;;;10.40;;
50495;SDS011;38806;51.554;5.704;2023-07-30T05:23:26;17.63;;;8.25;;
50495;SDS011;38806;51.554;5.704;2023-07-30T05:25:26;17.60;;;7.80;;
50495;SDS011;38806;51.554;5.704;2023-07-30T05:27:27;23.73;;;8.98;;
50495;SDS011;38806;51.554;5.704;2023-07-30T05:29:28;18.63;;;7.70;;
50495;SDS011;38806;51.554;5.704;2023-07-30T05:31:29;19.92;;;8.60;;
50495;SDS011;38806;51.554;5.704;2023-07-30T05:33:29;17.13;;;8.93;;
50495;SDS011;38806;51.554;5.704;2023-07-30T05:35:30;19.80;;;9.85;;
50495;SDS011;38806;51.554;5.704;2023-07-30T05:37:30;20.90;;;9.43;;
50495;SDS011;38806;51.554;5.704;2023-07-30T05:39:30;16.83;;;8.47;;
50495;SDS011;38806;51.554;5.704;2023-07-30T05:41:31;17.15;;;6.93;;
50495;SDS011;38806;51.554;5.704;2023-07-30T05:43:31;18.70;;;8.80;;
50495;SDS011;38806;51.554;5.704;2023-07-30T05:45:31;16.17;;;8.00;;
50495;SDS011;38806;51.554;5.704;2023-07-30T05:47:31;25.95;;;7.95;;
50495;SDS011;38806;51.554;5.704;2023-07-30T05:49:31;24.98;;;9.52;;
50495;SDS011;38806;51.554;5.704;2023-07-30T05:51:31;16.40;;;8.50;;
50495;SDS011;38806;51.554;5.704;2023-07-30T05:53:32;20.15;;;8.70;;
50495;SDS011;38806;51.554;5.704;2023-07-30T05:55:32;11.87;;;6.77;;
50495;SDS011;38806;51.554;5.704;2023-07-30T05:57:32;18.40;;;8.30;;
50495;SDS011;38806;51.554;5.704;2023-07-30T05:59:32;17.67;;;8.70;;
50495;SDS011;38806;51.554;5.704;2023-07-30T06:01:33;16.55;;;8.63;;
50495;SDS011;38806;51.554;5.704;2023-07-30T06:03:33;24.20;;;8.60;;
50495;SDS011;38806;51.554;5.704;2023-07-30T06:05:33;17.63;;;9.52;;
50495;SDS011;38806;51.554;5.704;2023-07-30T06:07:33;21.05;;;7.55;;
50495;SDS011;38806;51.554;5.704;2023-07-30T06:09:33;20.67;;;8.83;;
50495;SDS011;38806;51.554;5.704;2023-07-30T06:11:34;17.00;;;9.20;;
50495;SDS011;38806;51.554;5.704;2023-07-30T06:13:34;26.20;;;8.70;;
50495;SDS011;38806;51.554;5.704;2023-07-30T06:15:34;16.88;;;10.30;;
50495;SDS011;38806;51.554;5.704;2023-07-30T06:17:34;18.75;;;8.73;;
50495;SDS011;38806;51.554;5.704;2023-07-30T06:19:35;18.23;;;8.43;;
50495;SDS011;38806;51.554;5.704;2023-07-30T06:21:35;18.90;;;7.40;;
50495;SDS011;38806;51.554;5.704;2023-07-30T06:23:35;20.50;;;9.02;;
50495;SDS011;38806;51.554;5.704;2023-07-30T06:25:35;17.70;;;10.00;;
50495;SDS011;38806;51.554;5.704;2023-07-30T06:27:35;31.60;;;9.63;;
50495;SDS011;38806;51.554;5.704;2023-07-30T06:29:36;19.97;;;8.97;;
50495;SDS011;38806;51.554;5.704;2023-07-30T06:31:36;20.27;;;8.18;;
50495;SDS011;38806;51.554;5.704;2023-07-30T06:33:36;26.77;;;8.98;;
50495;SDS011;38806;51.554;5.704;2023-07-30T06:35:37;23.70;;;8.70;;
50495;SDS011;38806;51.554;5.704;2023-07-30T06:37:37;21.13;;;8.38;;
50495;SDS011;38806;51.554;5.704;2023-07-30T06:39:38;24.50;;;10.05;;
50495;SDS011;38806;51.554;5.704;2023-07-30T06:41:38;21.75;;;10.45;;
50495;SDS011;38806;51.554;5.704;2023-07-30T06:43:38;19.30;;;9.88;;
50495;SDS011;38806;51.554;5.704;2023-07-30T06:45:38;27.70;;;9.00;;
50495;SDS011;38806;51.554;5.704;2023-07-30T06:47:39;22.33;;;10.40;;
50495;SDS011;38806;51.554;5.704;2023-07-30T06:49:39;21.50;;;9.95;;
50495;SDS011;38806;51.554;5.704;2023-07-30T06:51:39;27.65;;;12.00;;
50495;SDS011;38806;51.554;5.704;2023-07-30T06:53:39;15.32;;;8.32;;
50495;SDS011;38806;51.554;5.704;2023-07-30T06:55:39;27.10;;;10.93;;
50495;SDS011;38806;51.554;5.704;2023-07-30T06:57:40;18.70;;;9.77;;
50495;SDS011;38806;51.554;5.704;2023-07-30T06:59:40;19.27;;;9.65;;
50495;SDS011;38806;51.554;5.704;2023-07-30T07:01:40;29.63;;;10.73;;
50495;SDS011;38806;51.554;5.704;2023-07-30T07:03:40;19.80;;;8.50;;
50495;SDS011;38806;51.554;5.704;2023-07-30T07:05:41;20.30;;;8.90;;
50495;SDS011;38806;51.554;5.704;2023-07-30T07:07:41;18.77;;;8.73;;
50495;SDS011;38806;51.554;5.704;2023-07-30T07:09:41;23.33;;;9.33;;
50495;SDS011;38806;51.554;5.704;2023-07-30T07:11:41;22.13;;;10.45;;
50495;SDS011;38806;51.554;5.704;2023-07-30T07:13:42;23.58;;;8.93;;
50495;SDS011;38806;51.554;5.704;2023-07-30T07:15:42;21.65;;;7.03;;
50495;SDS011;38806;51.554;5.704;2023-07-30T07:17:42;15.45;;;6.07;;
50495;SDS011;38806;51.554;5.704;2023-07-30T07:19:43;16.83;;;7.18;;
50495;SDS011;38806;51.554;5.704;2023-07-30T07:21:43;14.20;;;6.43;;
50495;SDS011;38806;51.554;5.704;2023-07-30T07:23:43;21.50;;;8.70;;
50495;SDS011;38806;51.554;5.704;2023-07-30T07:25:43;12.60;;;6.43;;
50495;SDS011;38806;51.554;5.704;2023-07-30T07:27:44;20.30;;;7.78;;
50495;SDS011;38806;51.554;5.704;2023-07-30T07:29:44;23.00;;;7.40;;
50495;SDS011;38806;51.554;5.704;2023-07-30T07:31:45;22.00;;;6.20;;
50495;SDS011;38806;51.554;5.704;2023-07-30T07:33:45;17.83;;;7.30;;
50495;SDS011;38806;51.554;5.704;2023-07-30T07:35:45;13.52;;;6.20;;
50495;SDS011;38806;51.554;5.704;2023-07-30T07:37:45;17.30;;;6.40;;
50495;SDS011;38806;51.554;5.704;2023-07-30T07:39:46;18.80;;;6.53;;
50495;SDS011;38806;51.554;5.704;2023-07-30T07:41:46;16.02;;;5.20;;
50495;SDS011;38806;51.554;5.704;2023-07-30T07:43:46;21.37;;;4.90;;
50495;SDS011;38806;51.554;5.704;2023-07-30T07:45:47;15.73;;;4.90;;
50495;SDS011;38806;51.554;5.704;2023-07-30T07:47:47;21.87;;;6.40;;
50495;SDS011;38806;51.554;5.704;2023-07-30T07:49:47;20.03;;;6.17;;
50495;SDS011;38806;51.554;5.704;2023-07-30T07:51:48;18.63;;;5.53;;
50495;SDS011;38806;51.554;5.704;2023-07-30T07:53:48;15.02;;;5.72;;
50495;SDS011;38806;51.554;5.704;2023-07-30T07:55:49;12.70;;;5.30;;
50495;SDS011;38806;51.554;5.704;2023-07-30T07:57:49;18.87;;;4.90;;
50495;SDS011;38806;51.554;5.704;2023-07-30T07:59:49;16.27;;;6.33;;
50495;SDS011;38806;51.554;5.704;2023-07-30T08:01:49;14.80;;;4.50;;
50495;SDS011;38806;51.554;5.704;2023-07-30T08:03:50;14.63;;;4.90;;
50495;SDS011;38806;51.554;5.704;2023-07-30T08:05:50;22.08;;;5.82;;
50495;SDS011;38806;51.554;5.704;2023-07-30T08:07:50;18.08;;;4.03;;
50495;SDS011;38806;51.554;5.704;2023-07-30T08:09:51;15.20;;;5.53;;
50495;SDS011;38806;51.554;5.704;2023-07-30T08:11:51;13.32;;;3.92;;
50495;SDS011;38806;51.554;5.704;2023-07-30T08:13:51;13.20;;;5.27;;
50495;SDS011;38806;51.554;5.704;2023-07-30T08:15:51;13.55;;;4.88;;
50495;SDS011;38806;51.554;5.704;2023-07-30T08:17:52;16.87;;;4.10;;
50495;SDS011;38806;51.554;5.704;2023-07-30T08:19:52;21.17;;;4.50;;
50495;SDS011;38806;51.554;5.704;2023-07-30T08:21:52;12.57;;;4.27;;
50495;SDS011;38806;51.554;5.704;2023-07-30T08:23:52;13.85;;;3.75;;
50495;SDS011;38806;51.554;5.704;2023-07-30T08:25:52;18.27;;;4.30;;
50495;SDS011;38806;51.554;5.704;2023-07-30T08:27:53;25.13;;;6.43;;
50495;SDS011;38806;51.554;5.704;2023-07-30T08:29:54;15.57;;;5.13;;
50495;SDS011;38806;51.554;5.704;2023-07-30T08:31:54;24.63;;;5.38;;
50495;SDS011;38806;51.554;5.704;2023-07-30T08:33:54;16.10;;;4.68;;
50495;SDS011;38806;51.554;5.704;2023-07-30T08:35:55;18.08;;;5.28;;
50495;SDS011;38806;51.554;5.704;2023-07-30T08:37:55;12.20;;;4.57;;
50495;SDS011;38806;51.554;5.704;2023-07-30T08:39:55;12.37;;;3.97;;
50495;SDS011;38806;51.554;5.704;2023-07-30T08:41:56;15.97;;;4.17;;
50495;SDS011;38806;51.554;5.704;2023-07-30T08:43:56;19.03;;;5.23;;
50495;SDS011;38806;51.554;5.704;2023-07-30T08:45:56;16.40;;;4.70;;
50495;SDS011;38806;51.554;5.704;2023-07-30T08:47:57;19.17;;;4.72;;
50495;SDS011;38806;51.554;5.704;2023-07-30T08:49:57;13.40;;;4.33;;
50495;SDS011;38806;51.554;5.704;2023-07-30T08:51:57;14.33;;;5.27;;
50495;SDS011;38806;51.554;5.704;2023-07-30T08:53:57;12.07;;;4.17;;
50495;SDS011;38806;51.554;5.704;2023-07-30T08:55:58;15.65;;;6.45;;
50495;SDS011;38806;51.554;5.704;2023-07-30T08:57:59;11.65;;;3.72;;
50495;SDS011;38806;51.554;5.704;2023-07-30T09:00:05;13.65;;;4.82;;
50495;SDS011;38806;51.554;5.704;2023-07-30T09:02:09;11.13;;;4.95;;
50495;SDS011;38806;51.554;5.704;2023-07-30T09:04:12;14.38;;;4.72;;
50495;SDS011;38806;51.554;5.704;2023-07-30T09:06:14;12.52;;;4.03;;
50495;SDS011;38806;51.554;5.704;2023-07-30T09:08:14;17.65;;;5.57;;
50495;SDS011;38806;51.554;5.704;2023-07-30T09:10:15;11.88;;;5.22;;
50495;SDS011;38806;51.554;5.704;2023-07-30T09:12:16;18.45;;;4.63;;
50495;SDS011;38806;51.554;5.704;2023-07-30T09:14:16;12.70;;;5.60;;
50495;SDS011;38806;51.554;5.704;2023-07-30T09:16:19;11.80;;;5.03;;
50495;SDS011;38806;51.554;5.704;2023-07-30T09:18:19;12.23;;;4.32;;
50495;SDS011;38806;51.554;5.704;2023-07-30T09:20:19;16.17;;;5.55;;
50495;SDS011;38806;51.554;5.704;2023-07-30T09:22:24;12.75;;;5.32;;
50495;SDS011;38806;51.554;5.704;2023-07-30T09:24:24;19.67;;;6.47;;
50495;SDS011;38806;51.554;5.704;2023-07-30T09:26:24;13.37;;;5.93;;
50495;SDS011;38806;51.554;5.704;2023-07-30T09:28:30;18.55;;;5.35;;
50495;SDS011;38806;51.554;5.704;2023-07-30T09:30:31;13.85;;;6.20;;
50495;SDS011;38806;51.554;5.704;2023-07-30T09:32:33;9.05;;;4.22;;
50495;SDS011;38806;51.554;5.704;2023-07-30T09:34:34;9.60;;;4.15;;
50495;SDS011;38806;51.554;5.704;2023-07-30T09:36:34;16.02;;;4.90;;
50495;SDS011;38806;51.554;5.704;2023-07-30T09:38:38;16.23;;;4.85;;
50495;SDS011;38806;51.554;5.704;2023-07-30T09:40:39;10.18;;;3.95;;
50495;SDS011;38806;51.554;5.704;2023-07-30T09:42:43;13.55;;;4.85;;
50495;SDS011;38806;51.554;5.704;2023-07-30T09:44:44;13.95;;;4.00;;
50495;SDS011;38806;51.554;5.704;2023-07-30T09:46:47;16.23;;;5.70;;
50495;SDS011;38806;51.554;5.704;2023-07-30T09:48:48;19.50;;;5.00;;
50495;SDS011;38806;51.554;5.704;2023-07-30T09:50:48;8.02;;;3.10;;
50495;SDS011;38806;51.554;5.704;2023-07-30T09:52:49;12.85;;;4.45;;
50495;SDS011;38806;51.554;5.704;2023-07-30T09:54:49;17.15;;;4.05;;
50495;SDS011;38806;51.554;5.704;2023-07-30T09:56:52;9.50;;;3.00;;
50495;SDS011;38806;51.554;5.704;2023-07-30T09:58:52;11.67;;;3.33;;
50495;SDS011;38806;51.554;5.704;2023-07-30T10:00:53;7.63;;;3.50;;
50495;SDS011;38806;51.554;5.704;2023-07-30T10:02:53;9.65;;;3.63;;
50495;SDS011;38806;51.554;5.704;2023-07-30T10:04:55;10.80;;;2.80;;
50495;SDS011;38806;51.554;5.704;2023-07-30T10:06:57;8.93;;;3.08;;
50495;SDS011;38806;51.554;5.704;2023-07-30T10:08:58;11.27;;;2.97;;
50495;SDS011;38806;51.554;5.704;2023-07-30T10:10:59;12.20;;;3.13;;
50495;SDS011;38806;51.554;5.704;2023-07-30T10:13:02;13.77;;;3.60;;
50495;SDS011;38806;51.554;5.704;2023-07-30T10:15:03;13.13;;;2.78;;
50495;SDS011;38806;51.554;5.704;2023-07-30T10:17:09;8.85;;;2.50;;
50495;SDS011;38806;51.554;5.704;2023-07-30T10:19:09;9.85;;;2.47;;
50495;SDS011;38806;51.554;5.704;2023-07-30T10:21:10;8.17;;;3.10;;
50495;SDS011;38806;51.554;5.704;2023-07-30T10:23:10;14.27;;;3.20;;
50495;SDS011;38806;51.554;5.704;2023-07-30T10:25:12;13.60;;;3.07;;
50495;SDS011;38806;51.554;5.704;2023-07-30T10:27:13;6.65;;;2.90;;
50495;SDS011;38806;51.554;5.704;2023-07-30T10:29:22;11.38;;;3.15;;
50495;SDS011;38806;51.554;5.704;2023-07-30T10:31:23;9.45;;;3.22;;
50495;SDS011;38806;51.554;5.704;2023-07-30T10:35:46;8.90;;;2.30;;
50495;SDS011;38806;51.554;5.704;2023-07-30T10:37:47;7.93;;;2.33;;
50495;SDS011;38806;51.554;5.704;2023-07-30T10:39:48;12.57;;;3.30;;
50495;SDS011;38806;51.554;5.704;2023-07-30T10:41:49;17.17;;;4.40;;
50495;SDS011;38806;51.554;5.704;2023-07-30T10:43:50;13.98;;;3.72;;
50495;SDS011;38806;51.554;5.704;2023-07-30T10:45:50;13.20;;;2.80;;
50495;SDS011;38806;51.554;5.704;2023-07-30T10:47:51;9.38;;;2.13;;
50495;SDS011;38806;51.554;5.704;2023-07-30T10:49:51;12.43;;;3.20;;
50495;SDS011;38806;51.554;5.704;2023-07-30T10:51:53;7.13;;;2.25;;
50495;SDS011;38806;51.554;5.704;2023-07-30T10:53:54;11.73;;;3.42;;
50495;SDS011;38806;51.554;5.704;2023-07-30T10:55:54;8.30;;;2.15;;
50495;SDS011;38806;51.554;5.704;2023-07-30T10:57:59;9.20;;;2.35;;
50495;SDS011;38806;51.554;5.704;2023-07-30T10:59:59;6.53;;;2.40;;
50495;SDS011;38806;51.554;5.704;2023-07-30T11:01:59;9.40;;;3.28;;
50495;SDS011;38806;51.554;5.704;2023-07-30T11:03:59;11.27;;;4.90;;
50495;SDS011;38806;51.554;5.704;2023-07-30T11:06:00;11.60;;;5.40;;
50495;SDS011;38806;51.554;5.704;2023-07-30T11:08:01;9.40;;;4.10;;
50495;SDS011;38806;51.554;5.704;2023-07-30T11:10:01;7.83;;;4.60;;
50495;SDS011;38806;51.554;5.704;2023-07-30T11:12:02;10.63;;;4.72;;
50495;SDS011;38806;51.554;5.704;2023-07-30T11:14:03;13.00;;;5.35;;
50495;SDS011;38806;51.554;5.704;2023-07-30T11:16:04;8.60;;;5.53;;
50495;SDS011;38806;51.554;5.704;2023-07-30T11:18:04;12.07;;;4.15;;
50495;SDS011;38806;51.554;5.704;2023-07-30T11:20:05;11.83;;;5.60;;
50495;SDS011;38806;51.554;5.704;2023-07-30T11:22:06;13.88;;;4.85;;
50495;SDS011;38806;51.554;5.704;2023-07-30T11:24:09;11.57;;;3.63;;
50495;SDS011;38806;51.554;5.704;2023-07-30T11:26:13;9.90;;;3.70;;
50495;SDS011;38806;51.554;5.704;2023-07-30T11:28:13;12.02;;;4.18;;
50495;SDS011;38806;51.554;5.704;2023-07-30T11:30:13;7.75;;;5.00;;
50495;SDS011;38806;51.554;5.704;2023-07-30T11:32:14;11.32;;;3.38;;
50495;SDS011;38806;51.554;5.704;2023-07-30T11:34:14;8.60;;;3.60;;
50495;SDS011;38806;51.554;5.704;2023-07-30T11:36:16;14.52;;;4.40;;
50495;SDS011;38806;51.554;5.704;2023-07-30T11:38:16;16.50;;;4.13;;
50495;SDS011;38806;51.554;5.704;2023-07-30T11:40:20;8.88;;;4.20;;
50495;SDS011;38806;51.554;5.704;2023-07-30T11:42:21;7.63;;;3.88;;
50495;SDS011;38806;51.554;5.704;2023-07-30T11:44:31;10.05;;;4.82;;
50495;SDS011;38806;51.554;5.704;2023-07-30T11:46:31;8.20;;;3.75;;
50495;SDS011;38806;51.554;5.704;2023-07-30T11:48:33;9.63;;;4.97;;
50495;SDS011;38806;51.554;5.704;2023-07-30T11:50:49;8.40;;;3.10;;
50495;SDS011;38806;51.554;5.704;2023-07-30T11:52:56;8.82;;;3.35;;
50495;SDS011;38806;51.554;5.704;2023-07-30T11:54:59;11.45;;;3.70;;
50495;SDS011;38806;51.554;5.704;2023-07-30T11:56:59;9.77;;;3.30;;
50495;SDS011;38806;51.554;5.704;2023-07-30T11:59:00;10.43;;;2.80;;